sensor_id;sensor_type;location;lat;lon;timestamp;P1;durP1;ratioP1;P2;durP2;ratioP2
23123;SDS011;11731;48.592;8.858;2023-03-29T00:01:40;1.93;;;1.63;;
23123;SDS011;11731;48.592;8.858;2023-03-29T00:04:08;3.40;;;1.90;;
23123;SDS011;11731;48.592;8.858;2023-03-29T00:06:37;2.73;;;1.50;;
23123;SDS011;11731;48.592;8.858;2023-03-29T00:09:06;1.87;;;1.70;;
23123;SDS011;11731;48.592;8.858;2023-03-29T00:11:34;3.17;;;2.60;;
23123;SDS011;11731;48.592;8.858;2023-03-29T00:14:01;3.50;;;2.43;;
23123;SDS011;11731;48.592;8.858;2023-03-29T00:16:27;3.90;;;2.20;;
23123;SDS011;11731;48.592;8.858;2023-03-29T00:18:55;3.03;;;1.87;;
23123;SDS011;11731;48.592;8.858;2023-03-29T00:21:23;2.57;;;1.83;;
23123;SDS011;11731;48.592;8.858;2023-03-29T00:23:50;2.40;;;1.97;;
23123;SDS011;11731;48.592;8.858;2023-03-29T00:26:17;1.93;;;1.50;;
23123;SDS011;11731;48.592;8.858;2023-03-29T00:28:44;3.17;;;1.77;;
23123;SDS011;11731;48.592;8.858;2023-03-29T00:31:11;3.20;;;1.43;;
23123;SDS011;11731;48.592;8.858;2023-03-29T00:33:40;2.00;;;1.60;;
23123;SDS011;11731;48.592;8.858;2023-03-29T00:36:07;1.53;;;1.40;;
23123;SDS011;11731;48.592;8.858;2023-03-29T00:38:38;2.80;;;1.53;;
23123;SDS011;11731;48.592;8.858;2023-03-29T00:48:56;2.40;;;2.03;;
23123;SDS011;11731;48.592;8.858;2023-03-29T00:51:28;2.13;;;1.60;;
23123;SDS011;11731;48.592;8.858;2023-03-29T00:54:00;1.67;;;1.40;;
23123;SDS011;11731;48.592;8.858;2023-03-29T00:56:44;2.77;;;1.60;;
23123;SDS011;11731;48.592;8.858;2023-03-29T00:59:17;1.70;;;1.60;;
23123;SDS011;11731;48.592;8.858;2023-03-29T01:01:52;2.03;;;1.60;;
23123;SDS011;11731;48.592;8.858;2023-03-29T01:04:24;2.43;;;1.80;;
23123;SDS011;11731;48.592;8.858;2023-03-29T01:07:02;2.67;;;1.90;;
23123;SDS011;11731;48.592;8.858;2023-03-29T01:09:41;3.57;;;1.90;;
23123;SDS011;11731;48.592;8.858;2023-03-29T01:12:12;1.93;;;1.77;;
23123;SDS011;11731;48.592;8.858;2023-03-29T01:14:44;2.20;;;1.80;;
23123;SDS011;11731;48.592;8.858;2023-03-29T01:17:21;2.00;;;1.63;;
23123;SDS011;11731;48.592;8.858;2023-03-29T01:19:52;2.10;;;1.63;;
23123;SDS011;11731;48.592;8.858;2023-03-29T01:22:33;3.83;;;1.80;;
23123;SDS011;11731;48.592;8.858;2023-03-29T01:25:18;2.40;;;1.87;;
23123;SDS011;11731;48.592;8.858;2023-03-29T01:34:35;2.27;;;1.60;;
23123;SDS011;11731;48.592;8.858;2023-03-29T01:37:09;2.00;;;1.80;;
23123;SDS011;11731;48.592;8.858;2023-03-29T01:39:44;2.63;;;2.00;;
23123;SDS011;11731;48.592;8.858;2023-03-29T01:42:41;2.97;;;1.80;;
23123;SDS011;11731;48.592;8.858;2023-03-29T01:45:18;2.10;;;1.90;;
23123;SDS011;11731;48.592;8.858;2023-03-29T01:47:56;3.40;;;1.80;;
23123;SDS011;11731;48.592;8.858;2023-03-29T01:50:43;2.73;;;1.83;;
23123;SDS011;11731;48.592;8.858;2023-03-29T01:53:49;1.90;;;1.80;;
23123;SDS011;11731;48.592;8.858;2023-03-29T01:56:27;1.93;;;1.63;;
23123;SDS011;11731;48.592;8.858;2023-03-29T01:58:57;2.93;;;1.93;;
23123;SDS011;11731;48.592;8.858;2023-03-29T02:01:36;2.67;;;1.87;;
23123;SDS011;11731;48.592;8.858;2023-03-29T02:04:21;4.43;;;1.97;;
23123;SDS011;11731;48.592;8.858;2023-03-29T02:06:53;7.00;;;2.00;;
23123;SDS011;11731;48.592;8.858;2023-03-29T02:09:48;2.37;;;2.07;;
23123;SDS011;11731;48.592;8.858;2023-03-29T02:12:18;3.07;;;1.90;;
23123;SDS011;11731;48.592;8.858;2023-03-29T02:15:16;4.27;;;2.00;;
23123;SDS011;11731;48.592;8.858;2023-03-29T02:17:45;2.53;;;1.93;;
23123;SDS011;11731;48.592;8.858;2023-03-29T02:20:15;2.63;;;1.93;;
23123;SDS011;11731;48.592;8.858;2023-03-29T02:22:47;2.70;;;2.10;;
23123;SDS011;11731;48.592;8.858;2023-03-29T02:25:20;3.07;;;2.20;;
23123;SDS011;11731;48.592;8.858;2023-03-29T02:27:50;2.93;;;2.10;;
23123;SDS011;11731;48.592;8.858;2023-03-29T02:30:21;3.27;;;2.00;;
23123;SDS011;11731;48.592;8.858;2023-03-29T02:33:07;2.30;;;2.00;;
23123;SDS011;11731;48.592;8.858;2023-03-29T02:35:48;2.27;;;1.87;;
23123;SDS011;11731;48.592;8.858;2023-03-29T02:38:18;3.43;;;1.87;;
23123;SDS011;11731;48.592;8.858;2023-03-29T02:40:50;4.30;;;2.00;;
23123;SDS011;11731;48.592;8.858;2023-03-29T02:43:18;4.47;;;2.40;;
23123;SDS011;11731;48.592;8.858;2023-03-29T02:45:49;3.03;;;2.20;;
23123;SDS011;11731;48.592;8.858;2023-03-29T02:48:21;3.50;;;2.20;;
23123;SDS011;11731;48.592;8.858;2023-03-29T02:51:02;4.60;;;2.10;;
23123;SDS011;11731;48.592;8.858;2023-03-29T02:53:36;4.23;;;2.03;;
23123;SDS011;11731;48.592;8.858;2023-03-29T02:56:07;4.33;;;1.90;;
23123;SDS011;11731;48.592;8.858;2023-03-29T02:58:41;2.33;;;2.13;;
23123;SDS011;11731;48.592;8.858;2023-03-29T03:01:10;2.13;;;1.83;;
23123;SDS011;11731;48.592;8.858;2023-03-29T03:03:40;2.50;;;1.90;;
23123;SDS011;11731;48.592;8.858;2023-03-29T03:06:08;2.27;;;2.07;;
23123;SDS011;11731;48.592;8.858;2023-03-29T03:08:36;3.00;;;2.10;;
23123;SDS011;11731;48.592;8.858;2023-03-29T03:11:03;2.23;;;1.80;;
23123;SDS011;11731;48.592;8.858;2023-03-29T03:13:31;2.87;;;2.13;;
23123;SDS011;11731;48.592;8.858;2023-03-29T03:15:58;2.73;;;1.93;;
23123;SDS011;11731;48.592;8.858;2023-03-29T03:18:28;2.30;;;2.10;;
23123;SDS011;11731;48.592;8.858;2023-03-29T03:20:55;2.50;;;2.00;;
23123;SDS011;11731;48.592;8.858;2023-03-29T03:23:29;2.20;;;2.00;;
23123;SDS011;11731;48.592;8.858;2023-03-29T03:26:11;3.53;;;2.03;;
23123;SDS011;11731;48.592;8.858;2023-03-29T03:28:39;2.03;;;1.73;;
23123;SDS011;11731;48.592;8.858;2023-03-29T03:31:06;2.97;;;2.10;;
23123;SDS011;11731;48.592;8.858;2023-03-29T03:33:37;2.93;;;2.20;;
23123;SDS011;11731;48.592;8.858;2023-03-29T03:36:05;2.27;;;1.90;;
23123;SDS011;11731;48.592;8.858;2023-03-29T03:38:36;2.33;;;2.00;;
23123;SDS011;11731;48.592;8.858;2023-03-29T03:41:16;2.57;;;1.90;;
23123;SDS011;11731;48.592;8.858;2023-03-29T03:43:52;2.97;;;2.50;;
23123;SDS011;11731;48.592;8.858;2023-03-29T03:46:28;7.07;;;3.17;;
23123;SDS011;11731;48.592;8.858;2023-03-29T03:49:05;3.37;;;2.40;;
23123;SDS011;11731;48.592;8.858;2023-03-29T03:51:34;5.00;;;2.20;;
23123;SDS011;11731;48.592;8.858;2023-03-29T03:57:04;2.80;;;1.97;;
23123;SDS011;11731;48.592;8.858;2023-03-29T03:59:31;3.57;;;2.03;;
23123;SDS011;11731;48.592;8.858;2023-03-29T04:02:04;2.40;;;2.00;;
23123;SDS011;11731;48.592;8.858;2023-03-29T04:04:31;5.37;;;2.00;;
23123;SDS011;11731;48.592;8.858;2023-03-29T04:06:58;3.57;;;1.47;;
23123;SDS011;11731;48.592;8.858;2023-03-29T04:09:27;3.30;;;2.13;;
23123;SDS011;11731;48.592;8.858;2023-03-29T04:11:56;2.57;;;1.63;;
23123;SDS011;11731;48.592;8.858;2023-03-29T04:14:24;3.10;;;1.90;;
23123;SDS011;11731;48.592;8.858;2023-03-29T04:16:51;4.07;;;1.73;;
23123;SDS011;11731;48.592;8.858;2023-03-29T04:19:18;2.67;;;1.40;;
23123;SDS011;11731;48.592;8.858;2023-03-29T04:21:47;2.90;;;1.70;;
23123;SDS011;11731;48.592;8.858;2023-03-29T04:24:43;2.40;;;1.90;;
23123;SDS011;11731;48.592;8.858;2023-03-29T04:27:14;3.20;;;1.83;;
23123;SDS011;11731;48.592;8.858;2023-03-29T04:29:42;5.00;;;2.90;;
23123;SDS011;11731;48.592;8.858;2023-03-29T04:34:57;2.27;;;1.30;;
23123;SDS011;11731;48.592;8.858;2023-03-29T04:37:24;1.83;;;1.60;;
23123;SDS011;11731;48.592;8.858;2023-03-29T04:39:52;2.97;;;1.60;;
23123;SDS011;11731;48.592;8.858;2023-03-29T04:42:20;2.63;;;1.70;;
23123;SDS011;11731;48.592;8.858;2023-03-29T04:44:52;7.63;;;2.13;;
23123;SDS011;11731;48.592;8.858;2023-03-29T04:47:30;2.70;;;1.73;;
23123;SDS011;11731;48.592;8.858;2023-03-29T04:50:00;3.00;;;1.40;;
23123;SDS011;11731;48.592;8.858;2023-03-29T04:52:27;2.27;;;1.20;;
23123;SDS011;11731;48.592;8.858;2023-03-29T04:54:59;4.13;;;1.80;;
23123;SDS011;11731;48.592;8.858;2023-03-29T04:57:31;3.93;;;1.60;;
23123;SDS011;11731;48.592;8.858;2023-03-29T04:59:58;1.70;;;1.47;;
23123;SDS011;11731;48.592;8.858;2023-03-29T05:02:25;4.17;;;1.30;;
23123;SDS011;11731;48.592;8.858;2023-03-29T05:04:54;2.37;;;1.40;;
23123;SDS011;11731;48.592;8.858;2023-03-29T05:07:21;3.43;;;1.40;;
23123;SDS011;11731;48.592;8.858;2023-03-29T05:09:52;2.83;;;1.37;;
23123;SDS011;11731;48.592;8.858;2023-03-29T05:12:23;1.67;;;1.30;;
23123;SDS011;11731;48.592;8.858;2023-03-29T05:14:58;1.87;;;1.30;;
23123;SDS011;11731;48.592;8.858;2023-03-29T05:17:38;1.33;;;1.20;;
23123;SDS011;11731;48.592;8.858;2023-03-29T05:20:08;3.43;;;1.10;;
23123;SDS011;11731;48.592;8.858;2023-03-29T05:22:37;1.57;;;1.20;;
23123;SDS011;11731;48.592;8.858;2023-03-29T05:25:07;2.00;;;1.37;;
23123;SDS011;11731;48.592;8.858;2023-03-29T05:27:39;1.90;;;1.57;;
23123;SDS011;11731;48.592;8.858;2023-03-29T05:30:11;2.47;;;1.57;;
23123;SDS011;11731;48.592;8.858;2023-03-29T05:32:39;1.93;;;1.30;;
23123;SDS011;11731;48.592;8.858;2023-03-29T05:35:07;2.63;;;1.60;;
23123;SDS011;11731;48.592;8.858;2023-03-29T05:37:34;2.30;;;1.63;;
23123;SDS011;11731;48.592;8.858;2023-03-29T05:40:03;2.80;;;1.70;;
23123;SDS011;11731;48.592;8.858;2023-03-29T05:43:02;2.77;;;1.67;;
23123;SDS011;11731;48.592;8.858;2023-03-29T05:45:59;2.10;;;1.30;;
23123;SDS011;11731;48.592;8.858;2023-03-29T05:48:30;1.77;;;1.40;;
23123;SDS011;11731;48.592;8.858;2023-03-29T05:50:57;3.33;;;1.33;;
23123;SDS011;11731;48.592;8.858;2023-03-29T05:53:29;1.80;;;1.40;;
23123;SDS011;11731;48.592;8.858;2023-03-29T05:55:57;2.17;;;1.43;;
23123;SDS011;11731;48.592;8.858;2023-03-29T05:58:30;2.67;;;1.90;;
23123;SDS011;11731;48.592;8.858;2023-03-29T06:01:22;2.80;;;2.00;;
23123;SDS011;11731;48.592;8.858;2023-03-29T06:06:46;3.37;;;2.27;;
23123;SDS011;11731;48.592;8.858;2023-03-29T06:09:41;5.07;;;2.17;;
23123;SDS011;11731;48.592;8.858;2023-03-29T06:14:54;3.87;;;2.17;;
23123;SDS011;11731;48.592;8.858;2023-03-29T06:17:26;4.27;;;2.00;;
23123;SDS011;11731;48.592;8.858;2023-03-29T06:20:07;4.77;;;2.30;;
23123;SDS011;11731;48.592;8.858;2023-03-29T06:22:35;2.70;;;1.80;;
23123;SDS011;11731;48.592;8.858;2023-03-29T06:25:07;2.80;;;1.73;;
23123;SDS011;11731;48.592;8.858;2023-03-29T06:27:35;3.03;;;1.50;;
23123;SDS011;11731;48.592;8.858;2023-03-29T06:30:13;4.47;;;1.70;;
23123;SDS011;11731;48.592;8.858;2023-03-29T06:32:53;3.17;;;1.70;;
23123;SDS011;11731;48.592;8.858;2023-03-29T06:35:21;3.93;;;1.77;;
23123;SDS011;11731;48.592;8.858;2023-03-29T06:37:48;2.47;;;1.73;;
23123;SDS011;11731;48.592;8.858;2023-03-29T06:40:18;1.70;;;1.60;;
23123;SDS011;11731;48.592;8.858;2023-03-29T06:43:03;1.70;;;1.40;;
23123;SDS011;11731;48.592;8.858;2023-03-29T06:45:39;1.80;;;1.23;;
23123;SDS011;11731;48.592;8.858;2023-03-29T06:50:57;1.70;;;1.33;;
23123;SDS011;11731;48.592;8.858;2023-03-29T06:53:24;2.87;;;1.53;;
23123;SDS011;11731;48.592;8.858;2023-03-29T06:55:52;5.50;;;1.50;;
23123;SDS011;11731;48.592;8.858;2023-03-29T06:58:19;1.93;;;1.43;;
23123;SDS011;11731;48.592;8.858;2023-03-29T07:00:45;4.83;;;1.80;;
23123;SDS011;11731;48.592;8.858;2023-03-29T07:03:12;5.00;;;1.40;;
23123;SDS011;11731;48.592;8.858;2023-03-29T07:05:45;3.80;;;1.47;;
23123;SDS011;11731;48.592;8.858;2023-03-29T07:08:14;5.37;;;1.40;;
23123;SDS011;11731;48.592;8.858;2023-03-29T07:10:43;1.93;;;1.40;;
23123;SDS011;11731;48.592;8.858;2023-03-29T07:13:13;2.70;;;1.60;;
23123;SDS011;11731;48.592;8.858;2023-03-29T07:15:41;2.50;;;1.30;;
23123;SDS011;11731;48.592;8.858;2023-03-29T07:18:09;2.57;;;1.40;;
23123;SDS011;11731;48.592;8.858;2023-03-29T07:21:08;4.43;;;1.43;;
23123;SDS011;11731;48.592;8.858;2023-03-29T07:23:26;2.10;;;1.53;;
23123;SDS011;11731;48.592;8.858;2023-03-29T07:26:14;3.17;;;1.80;;
23123;SDS011;11731;48.592;8.858;2023-03-29T07:28:44;4.23;;;1.80;;
23123;SDS011;11731;48.592;8.858;2023-03-29T07:31:11;3.80;;;1.50;;
23123;SDS011;11731;48.592;8.858;2023-03-29T07:33:39;2.90;;;1.77;;
23123;SDS011;11731;48.592;8.858;2023-03-29T07:36:08;3.60;;;1.70;;
23123;SDS011;11731;48.592;8.858;2023-03-29T07:38:36;1.50;;;1.40;;
23123;SDS011;11731;48.592;8.858;2023-03-29T07:41:05;2.53;;;1.50;;
23123;SDS011;11731;48.592;8.858;2023-03-29T07:44:50;3.13;;;1.73;;
23123;SDS011;11731;48.592;8.858;2023-03-29T07:47:08;2.57;;;1.60;;
23123;SDS011;11731;48.592;8.858;2023-03-29T07:49:34;2.73;;;1.67;;
23123;SDS011;11731;48.592;8.858;2023-03-29T07:54:41;2.37;;;1.40;;
23123;SDS011;11731;48.592;8.858;2023-03-29T07:57:08;1.73;;;1.37;;
23123;SDS011;11731;48.592;8.858;2023-03-29T07:59:35;3.40;;;1.33;;
23123;SDS011;11731;48.592;8.858;2023-03-29T08:02:01;3.10;;;1.47;;
23123;SDS011;11731;48.592;8.858;2023-03-29T08:04:29;3.30;;;1.60;;
23123;SDS011;11731;48.592;8.858;2023-03-29T08:06:56;4.20;;;1.57;;
23123;SDS011;11731;48.592;8.858;2023-03-29T08:09:24;3.30;;;1.57;;
23123;SDS011;11731;48.592;8.858;2023-03-29T08:11:51;1.83;;;1.67;;
23123;SDS011;11731;48.592;8.858;2023-03-29T08:14:18;2.77;;;1.67;;
23123;SDS011;11731;48.592;8.858;2023-03-29T08:16:45;2.30;;;1.50;;
23123;SDS011;11731;48.592;8.858;2023-03-29T08:19:15;6.50;;;1.67;;
23123;SDS011;11731;48.592;8.858;2023-03-29T08:21:44;1.80;;;1.50;;
23123;SDS011;11731;48.592;8.858;2023-03-29T08:24:44;3.00;;;1.50;;
23123;SDS011;11731;48.592;8.858;2023-03-29T08:27:12;3.30;;;1.83;;
23123;SDS011;11731;48.592;8.858;2023-03-29T08:29:39;4.10;;;1.60;;
23123;SDS011;11731;48.592;8.858;2023-03-29T08:32:06;2.10;;;1.80;;
23123;SDS011;11731;48.592;8.858;2023-03-29T08:34:33;2.07;;;1.50;;
23123;SDS011;11731;48.592;8.858;2023-03-29T08:37:00;2.10;;;1.90;;
23123;SDS011;11731;48.592;8.858;2023-03-29T08:39:28;2.87;;;1.73;;
23123;SDS011;11731;48.592;8.858;2023-03-29T08:41:59;2.47;;;1.50;;
23123;SDS011;11731;48.592;8.858;2023-03-29T08:44:41;2.33;;;1.50;;
23123;SDS011;11731;48.592;8.858;2023-03-29T08:47:21;1.63;;;1.40;;
23123;SDS011;11731;48.592;8.858;2023-03-29T08:49:55;3.10;;;1.63;;
23123;SDS011;11731;48.592;8.858;2023-03-29T08:52:30;1.70;;;1.50;;
23123;SDS011;11731;48.592;8.858;2023-03-29T08:55:00;4.97;;;1.90;;
23123;SDS011;11731;48.592;8.858;2023-03-29T08:57:34;2.63;;;1.47;;
23123;SDS011;11731;48.592;8.858;2023-03-29T09:00:07;1.20;;;1.10;;
23123;SDS011;11731;48.592;8.858;2023-03-29T09:02:42;3.00;;;1.60;;
23123;SDS011;11731;48.592;8.858;2023-03-29T09:05:16;6.53;;;1.90;;
23123;SDS011;11731;48.592;8.858;2023-03-29T09:07:46;2.73;;;1.77;;
23123;SDS011;11731;48.592;8.858;2023-03-29T09:10:13;2.40;;;1.57;;
23123;SDS011;11731;48.592;8.858;2023-03-29T09:12:49;2.90;;;1.80;;
23123;SDS011;11731;48.592;8.858;2023-03-29T09:15:27;2.67;;;1.90;;
23123;SDS011;11731;48.592;8.858;2023-03-29T09:18:04;2.20;;;1.90;;
23123;SDS011;11731;48.592;8.858;2023-03-29T09:20:40;2.50;;;1.70;;
23123;SDS011;11731;48.592;8.858;2023-03-29T09:23:19;2.97;;;2.07;;
23123;SDS011;11731;48.592;8.858;2023-03-29T09:26:10;2.33;;;1.60;;
23123;SDS011;11731;48.592;8.858;2023-03-29T09:28:46;2.60;;;1.90;;
23123;SDS011;11731;48.592;8.858;2023-03-29T09:31:23;3.13;;;1.70;;
23123;SDS011;11731;48.592;8.858;2023-03-29T09:33:55;1.90;;;1.60;;
23123;SDS011;11731;48.592;8.858;2023-03-29T09:36:27;2.67;;;1.53;;
23123;SDS011;11731;48.592;8.858;2023-03-29T09:39:01;3.27;;;1.57;;
23123;SDS011;11731;48.592;8.858;2023-03-29T09:41:30;1.77;;;1.53;;
23123;SDS011;11731;48.592;8.858;2023-03-29T09:44:04;3.73;;;1.60;;
23123;SDS011;11731;48.592;8.858;2023-03-29T09:46:35;2.20;;;1.70;;
23123;SDS011;11731;48.592;8.858;2023-03-29T09:49:08;1.63;;;1.43;;
23123;SDS011;11731;48.592;8.858;2023-03-29T09:51:40;4.60;;;1.57;;
23123;SDS011;11731;48.592;8.858;2023-03-29T09:54:09;2.67;;;1.77;;
23123;SDS011;11731;48.592;8.858;2023-03-29T09:56:37;2.97;;;2.13;;
23123;SDS011;11731;48.592;8.858;2023-03-29T09:59:05;2.63;;;1.60;;
23123;SDS011;11731;48.592;8.858;2023-03-29T10:01:36;2.67;;;1.73;;
23123;SDS011;11731;48.592;8.858;2023-03-29T10:04:05;3.63;;;1.50;;
23123;SDS011;11731;48.592;8.858;2023-03-29T10:06:33;2.80;;;1.63;;
23123;SDS011;11731;48.592;8.858;2023-03-29T10:09:02;2.63;;;1.60;;
23123;SDS011;11731;48.592;8.858;2023-03-29T10:11:33;4.07;;;1.70;;
23123;SDS011;11731;48.592;8.858;2023-03-29T10:14:03;3.50;;;2.20;;
23123;SDS011;11731;48.592;8.858;2023-03-29T10:16:35;2.63;;;1.80;;
23123;SDS011;11731;48.592;8.858;2023-03-29T10:19:13;2.40;;;2.00;;
23123;SDS011;11731;48.592;8.858;2023-03-29T10:21:46;2.03;;;1.30;;
23123;SDS011;11731;48.592;8.858;2023-03-29T10:24:17;2.70;;;1.60;;
23123;SDS011;11731;48.592;8.858;2023-03-29T10:26:45;2.57;;;1.80;;
23123;SDS011;11731;48.592;8.858;2023-03-29T10:29:15;2.30;;;1.50;;
23123;SDS011;11731;48.592;8.858;2023-03-29T10:31:44;3.53;;;1.60;;
23123;SDS011;11731;48.592;8.858;2023-03-29T10:34:12;5.27;;;1.90;;
23123;SDS011;11731;48.592;8.858;2023-03-29T10:36:40;3.70;;;1.80;;
23123;SDS011;11731;48.592;8.858;2023-03-29T10:39:09;2.33;;;1.50;;
23123;SDS011;11731;48.592;8.858;2023-03-29T10:41:40;2.93;;;1.50;;
23123;SDS011;11731;48.592;8.858;2023-03-29T10:44:08;1.27;;;1.03;;
23123;SDS011;11731;48.592;8.858;2023-03-29T10:46:53;3.57;;;1.27;;
23123;SDS011;11731;48.592;8.858;2023-03-29T10:49:22;2.57;;;0.90;;
23123;SDS011;11731;48.592;8.858;2023-03-29T10:51:50;1.47;;;1.20;;
23123;SDS011;11731;48.592;8.858;2023-03-29T10:54:20;2.00;;;1.20;;
23123;SDS011;11731;48.592;8.858;2023-03-29T10:56:51;1.43;;;1.20;;
23123;SDS011;11731;48.592;8.858;2023-03-29T10:59:25;1.90;;;1.10;;
23123;SDS011;11731;48.592;8.858;2023-03-29T11:05:02;1.87;;;1.20;;
23123;SDS011;11731;48.592;8.858;2023-03-29T11:07:39;2.87;;;0.97;;
23123;SDS011;11731;48.592;8.858;2023-03-29T11:10:22;2.03;;;1.17;;
23123;SDS011;11731;48.592;8.858;2023-03-29T11:13:00;2.47;;;1.00;;
23123;SDS011;11731;48.592;8.858;2023-03-29T11:15:35;4.27;;;1.20;;
23123;SDS011;11731;48.592;8.858;2023-03-29T11:18:21;2.03;;;1.00;;
23123;SDS011;11731;48.592;8.858;2023-03-29T11:21:16;1.63;;;1.20;;
23123;SDS011;11731;48.592;8.858;2023-03-29T11:23:55;2.93;;;1.70;;
23123;SDS011;11731;48.592;8.858;2023-03-29T11:26:33;2.17;;;1.40;;
23123;SDS011;11731;48.592;8.858;2023-03-29T11:29:08;1.60;;;1.20;;
23123;SDS011;11731;48.592;8.858;2023-03-29T11:31:43;1.67;;;1.10;;
23123;SDS011;11731;48.592;8.858;2023-03-29T11:34:24;1.60;;;1.00;;
23123;SDS011;11731;48.592;8.858;2023-03-29T11:36:58;1.60;;;1.10;;
23123;SDS011;11731;48.592;8.858;2023-03-29T11:39:34;1.40;;;1.10;;
23123;SDS011;11731;48.592;8.858;2023-03-29T11:42:10;4.90;;;1.30;;
23123;SDS011;11731;48.592;8.858;2023-03-29T11:44:42;2.43;;;1.13;;
23123;SDS011;11731;48.592;8.858;2023-03-29T11:47:13;2.43;;;1.27;;
23123;SDS011;11731;48.592;8.858;2023-03-29T11:49:46;2.33;;;1.17;;
23123;SDS011;11731;48.592;8.858;2023-03-29T11:52:18;4.27;;;1.50;;
23123;SDS011;11731;48.592;8.858;2023-03-29T11:54:51;2.03;;;1.10;;
23123;SDS011;11731;48.592;8.858;2023-03-29T11:57:23;1.20;;;1.10;;
23123;SDS011;11731;48.592;8.858;2023-03-29T11:59:54;1.57;;;0.90;;
23123;SDS011;11731;48.592;8.858;2023-03-29T12:02:28;1.37;;;1.27;;
23123;SDS011;11731;48.592;8.858;2023-03-29T12:05:05;1.00;;;0.90;;
23123;SDS011;11731;48.592;8.858;2023-03-29T12:07:41;2.83;;;1.10;;
23123;SDS011;11731;48.592;8.858;2023-03-29T12:10:15;2.47;;;1.60;;
23123;SDS011;11731;48.592;8.858;2023-03-29T12:12:45;2.03;;;1.20;;
23123;SDS011;11731;48.592;8.858;2023-03-29T12:15:18;1.17;;;1.07;;
23123;SDS011;11731;48.592;8.858;2023-03-29T12:17:50;3.40;;;1.50;;
23123;SDS011;11731;48.592;8.858;2023-03-29T12:20:26;5.73;;;1.30;;
23123;SDS011;11731;48.592;8.858;2023-03-29T12:22:57;1.40;;;1.20;;
23123;SDS011;11731;48.592;8.858;2023-03-29T12:25:25;3.33;;;1.20;;
23123;SDS011;11731;48.592;8.858;2023-03-29T12:27:58;1.17;;;0.80;;
23123;SDS011;11731;48.592;8.858;2023-03-29T12:30:47;4.73;;;1.10;;
23123;SDS011;11731;48.592;8.858;2023-03-29T12:36:40;5.70;;;1.50;;
23123;SDS011;11731;48.592;8.858;2023-03-29T12:39:21;1.83;;;1.10;;
23123;SDS011;11731;48.592;8.858;2023-03-29T12:42:04;2.17;;;1.00;;
23123;SDS011;11731;48.592;8.858;2023-03-29T12:44:55;1.10;;;1.00;;
23123;SDS011;11731;48.592;8.858;2023-03-29T12:47:25;2.40;;;1.50;;
23123;SDS011;11731;48.592;8.858;2023-03-29T12:49:57;4.07;;;1.20;;
23123;SDS011;11731;48.592;8.858;2023-03-29T12:52:29;3.77;;;1.30;;
23123;SDS011;11731;48.592;8.858;2023-03-29T12:55:00;2.27;;;1.20;;
23123;SDS011;11731;48.592;8.858;2023-03-29T12:57:39;2.70;;;1.10;;
23123;SDS011;11731;48.592;8.858;2023-03-29T13:00:19;1.87;;;1.20;;
23123;SDS011;11731;48.592;8.858;2023-03-29T13:03:01;1.30;;;1.10;;
23123;SDS011;11731;48.592;8.858;2023-03-29T13:05:31;1.10;;;1.00;;
23123;SDS011;11731;48.592;8.858;2023-03-29T13:08:09;4.50;;;1.20;;
23123;SDS011;11731;48.592;8.858;2023-03-29T13:10:49;2.50;;;1.20;;
23123;SDS011;11731;48.592;8.858;2023-03-29T13:13:20;3.90;;;1.20;;
23123;SDS011;11731;48.592;8.858;2023-03-29T13:15:50;3.63;;;1.10;;
23123;SDS011;11731;48.592;8.858;2023-03-29T13:18:30;1.50;;;1.10;;
23123;SDS011;11731;48.592;8.858;2023-03-29T13:21:05;5.20;;;1.13;;
23123;SDS011;11731;48.592;8.858;2023-03-29T13:23:40;3.00;;;1.33;;
23123;SDS011;11731;48.592;8.858;2023-03-29T13:26:27;5.83;;;1.33;;
23123;SDS011;11731;48.592;8.858;2023-03-29T13:29:20;4.87;;;1.10;;
23123;SDS011;11731;48.592;8.858;2023-03-29T13:32:16;4.47;;;1.20;;
23123;SDS011;11731;48.592;8.858;2023-03-29T13:35:06;3.30;;;1.10;;
23123;SDS011;11731;48.592;8.858;2023-03-29T13:37:46;2.97;;;1.10;;
23123;SDS011;11731;48.592;8.858;2023-03-29T13:42:27;1.77;;;1.30;;
23123;SDS011;11731;48.592;8.858;2023-03-29T13:44:37;1.73;;;0.83;;
23123;SDS011;11731;48.592;8.858;2023-03-29T13:57:46;3.83;;;1.10;;
23123;SDS011;11731;48.592;8.858;2023-03-29T14:04:18;2.07;;;1.10;;
23123;SDS011;11731;48.592;8.858;2023-03-29T14:14:01;3.77;;;1.30;;
23123;SDS011;11731;48.592;8.858;2023-03-29T14:18:20;1.80;;;0.97;;
23123;SDS011;11731;48.592;8.858;2023-03-29T14:20:37;2.60;;;1.30;;
23123;SDS011;11731;48.592;8.858;2023-03-29T14:23:08;4.67;;;1.40;;
23123;SDS011;11731;48.592;8.858;2023-03-29T14:25:36;3.80;;;1.50;;
23123;SDS011;11731;48.592;8.858;2023-03-29T14:28:11;2.60;;;1.20;;
23123;SDS011;11731;48.592;8.858;2023-03-29T14:30:44;2.90;;;1.20;;
23123;SDS011;11731;48.592;8.858;2023-03-29T14:33:11;2.10;;;1.33;;
23123;SDS011;11731;48.592;8.858;2023-03-29T14:35:41;2.77;;;1.23;;
23123;SDS011;11731;48.592;8.858;2023-03-29T14:38:08;1.30;;;1.10;;
23123;SDS011;11731;48.592;8.858;2023-03-29T14:40:38;2.43;;;1.30;;
23123;SDS011;11731;48.592;8.858;2023-03-29T14:43:05;3.00;;;1.50;;
23123;SDS011;11731;48.592;8.858;2023-03-29T14:45:35;4.03;;;2.13;;
23123;SDS011;11731;48.592;8.858;2023-03-29T14:48:02;1.67;;;1.20;;
23123;SDS011;11731;48.592;8.858;2023-03-29T14:50:29;7.10;;;1.23;;
23123;SDS011;11731;48.592;8.858;2023-03-29T14:52:58;4.90;;;1.57;;
23123;SDS011;11731;48.592;8.858;2023-03-29T14:55:27;3.30;;;1.40;;
23123;SDS011;11731;48.592;8.858;2023-03-29T14:57:55;2.87;;;1.20;;
23123;SDS011;11731;48.592;8.858;2023-03-29T15:00:23;2.57;;;1.13;;
23123;SDS011;11731;48.592;8.858;2023-03-29T15:02:55;3.80;;;1.27;;
23123;SDS011;11731;48.592;8.858;2023-03-29T15:05:31;4.43;;;1.30;;
23123;SDS011;11731;48.592;8.858;2023-03-29T15:08:02;3.97;;;1.10;;
23123;SDS011;11731;48.592;8.858;2023-03-29T15:10:31;1.67;;;1.27;;
23123;SDS011;11731;48.592;8.858;2023-03-29T15:13:00;1.30;;;1.20;;
23123;SDS011;11731;48.592;8.858;2023-03-29T15:15:30;2.90;;;1.47;;
23123;SDS011;11731;48.592;8.858;2023-03-29T15:17:59;1.93;;;1.23;;
23123;SDS011;11731;48.592;8.858;2023-03-29T15:20:28;4.93;;;1.47;;
23123;SDS011;11731;48.592;8.858;2023-03-29T15:22:58;3.43;;;1.53;;
23123;SDS011;11731;48.592;8.858;2023-03-29T15:25:33;4.40;;;1.27;;
23123;SDS011;11731;48.592;8.858;2023-03-29T15:28:19;3.23;;;1.37;;
23123;SDS011;11731;48.592;8.858;2023-03-29T15:30:50;2.97;;;1.30;;
23123;SDS011;11731;48.592;8.858;2023-03-29T15:33:20;1.43;;;1.13;;
23123;SDS011;11731;48.592;8.858;2023-03-29T15:35:49;2.73;;;0.97;;
23123;SDS011;11731;48.592;8.858;2023-03-29T15:38:17;2.80;;;1.27;;
23123;SDS011;11731;48.592;8.858;2023-03-29T15:40:46;1.53;;;1.17;;
23123;SDS011;11731;48.592;8.858;2023-03-29T15:43:13;5.20;;;1.30;;
23123;SDS011;11731;48.592;8.858;2023-03-29T15:45:40;2.70;;;1.30;;
23123;SDS011;11731;48.592;8.858;2023-03-29T15:48:12;1.53;;;1.20;;
23123;SDS011;11731;48.592;8.858;2023-03-29T15:50:41;2.73;;;1.40;;
23123;SDS011;11731;48.592;8.858;2023-03-29T15:53:09;5.70;;;1.50;;
23123;SDS011;11731;48.592;8.858;2023-03-29T15:55:37;2.67;;;1.40;;
23123;SDS011;11731;48.592;8.858;2023-03-29T15:58:08;3.23;;;1.53;;
23123;SDS011;11731;48.592;8.858;2023-03-29T16:00:40;2.40;;;1.40;;
23123;SDS011;11731;48.592;8.858;2023-03-29T16:03:10;6.43;;;1.83;;
23123;SDS011;11731;48.592;8.858;2023-03-29T16:05:40;5.80;;;1.50;;
23123;SDS011;11731;48.592;8.858;2023-03-29T16:08:08;3.43;;;1.50;;
23123;SDS011;11731;48.592;8.858;2023-03-29T16:10:36;4.77;;;1.60;;
23123;SDS011;11731;48.592;8.858;2023-03-29T16:13:03;2.63;;;1.43;;
23123;SDS011;11731;48.592;8.858;2023-03-29T16:15:31;5.67;;;1.50;;
23123;SDS011;11731;48.592;8.858;2023-03-29T16:18:00;2.77;;;1.50;;
23123;SDS011;11731;48.592;8.858;2023-03-29T16:20:27;5.67;;;1.73;;
23123;SDS011;11731;48.592;8.858;2023-03-29T16:22:53;2.10;;;1.43;;
23123;SDS011;11731;48.592;8.858;2023-03-29T16:25:20;2.80;;;1.87;;